East Wenatchee, Washington
Current Conditions -  °F | °C
As of 12:55 PM on Tuesday 27 Jan 2015 (Local Time) from KEAT Reporting Station
Haze Haze  
Wind Chill: 37°   Ceiling: 300
Heat Index: 37°   Visibility: 6mi
Dew Point: 34°   Wind: 3mph
Humidity: 89%   Direction: 270°W
Pressure: 30.03"   Gusts: NA
Location:  47.42°N, 120.29°W
Report Text: KEAT 272055Z AUTO 27003KT 6SM BR OVC003 03/01 A3003 RMK AO2 SLP178 T00280011 58009
Loading
Personal Weather Stations






























Interactive Weather Map New forecast layout! Learn more

10-Day Weather Forecast

Advertisements
Track Severe Weather on mobile